sensor_id;sensor_type;location;lat;lon;timestamp;temperature;humidity
5588;DHT22;2816;49.778;9.986;2024-03-02T00:01:30;5.20;99.90
5588;DHT22;2816;49.778;9.986;2024-03-02T00:03:57;5.20;99.90
5588;DHT22;2816;49.778;9.986;2024-03-02T00:06:24;5.20;99.90
5588;DHT22;2816;49.778;9.986;2024-03-02T00:08:51;5.20;99.90
5588;DHT22;2816;49.778;9.986;2024-03-02T00:11:18;5.20;99.90
5588;DHT22;2816;49.778;9.986;2024-03-02T00:13:45;5.20;99.90
5588;DHT22;2816;49.778;9.986;2024-03-02T00:16:14;5.20;99.90
5588;DHT22;2816;49.778;9.986;2024-03-02T00:18:41;5.20;99.90
5588;DHT22;2816;49.778;9.986;2024-03-02T00:21:09;5.20;99.90
5588;DHT22;2816;49.778;9.986;2024-03-02T00:23:36;5.20;99.90
5588;DHT22;2816;49.778;9.986;2024-03-02T00:26:05;5.20;99.90
5588;DHT22;2816;49.778;9.986;2024-03-02T00:28:34;5.20;99.90
5588;DHT22;2816;49.778;9.986;2024-03-02T00:31:04;5.20;99.90
5588;DHT22;2816;49.778;9.986;2024-03-02T00:33:34;5.20;99.90
5588;DHT22;2816;49.778;9.986;2024-03-02T00:36:01;5.20;99.90
5588;DHT22;2816;49.778;9.986;2024-03-02T00:38:29;5.20;99.90
5588;DHT22;2816;49.778;9.986;2024-03-02T00:40:58;5.20;99.90
5588;DHT22;2816;49.778;9.986;2024-03-02T00:43:43;5.20;99.90
5588;DHT22;2816;49.778;9.986;2024-03-02T00:46:16;5.20;99.90
5588;DHT22;2816;49.778;9.986;2024-03-02T00:48:54;5.20;99.90
5588;DHT22;2816;49.778;9.986;2024-03-02T00:51:24;5.20;99.90
5588;DHT22;2816;49.778;9.986;2024-03-02T00:53:52;5.20;99.90
5588;DHT22;2816;49.778;9.986;2024-03-02T00:56:21;5.20;99.90
5588;DHT22;2816;49.778;9.986;2024-03-02T00:58:49;5.20;99.90
5588;DHT22;2816;49.778;9.986;2024-03-02T01:01:16;5.20;99.90
5588;DHT22;2816;49.778;9.986;2024-03-02T01:03:43;5.30;99.90
5588;DHT22;2816;49.778;9.986;2024-03-02T01:06:11;5.30;99.90
5588;DHT22;2816;49.778;9.986;2024-03-02T01:08:39;5.40;99.90
5588;DHT22;2816;49.778;9.986;2024-03-02T01:11:06;5.40;99.90
5588;DHT22;2816;49.778;9.986;2024-03-02T01:13:33;5.40;99.90
5588;DHT22;2816;49.778;9.986;2024-03-02T01:16:00;5.40;99.90
5588;DHT22;2816;49.778;9.986;2024-03-02T01:18:30;5.40;99.90
5588;DHT22;2816;49.778;9.986;2024-03-02T01:20:57;5.40;99.90
5588;DHT22;2816;49.778;9.986;2024-03-02T01:23:26;5.30;99.90
5588;DHT22;2816;49.778;9.986;2024-03-02T01:25:53;5.30;99.90
5588;DHT22;2816;49.778;9.986;2024-03-02T01:28:20;5.30;99.90
5588;DHT22;2816;49.778;9.986;2024-03-02T01:30:48;5.30;99.90
5588;DHT22;2816;49.778;9.986;2024-03-02T01:33:15;5.20;99.90
5588;DHT22;2816;49.778;9.986;2024-03-02T01:35:43;5.20;99.90
5588;DHT22;2816;49.778;9.986;2024-03-02T01:38:10;5.20;99.90
5588;DHT22;2816;49.778;9.986;2024-03-02T01:40:38;5.20;99.90
5588;DHT22;2816;49.778;9.986;2024-03-02T01:43:06;5.20;99.90
5588;DHT22;2816;49.778;9.986;2024-03-02T01:45:33;5.20;99.90
5588;DHT22;2816;49.778;9.986;2024-03-02T01:48:01;5.20;99.90
5588;DHT22;2816;49.778;9.986;2024-03-02T01:50:29;5.20;99.90
5588;DHT22;2816;49.778;9.986;2024-03-02T01:52:56;5.20;99.90
5588;DHT22;2816;49.778;9.986;2024-03-02T01:55:23;5.20;99.90
5588;DHT22;2816;49.778;9.986;2024-03-02T01:57:52;5.20;99.90
5588;DHT22;2816;49.778;9.986;2024-03-02T02:00:21;5.20;99.90
5588;DHT22;2816;49.778;9.986;2024-03-02T02:02:51;5.20;99.90
5588;DHT22;2816;49.778;9.986;2024-03-02T02:05:18;5.20;99.90
5588;DHT22;2816;49.778;9.986;2024-03-02T02:07:45;5.20;99.90
5588;DHT22;2816;49.778;9.986;2024-03-02T02:10:13;5.20;99.90
5588;DHT22;2816;49.778;9.986;2024-03-02T02:12:40;5.20;99.90
5588;DHT22;2816;49.778;9.986;2024-03-02T02:18:06;5.20;99.90
5588;DHT22;2816;49.778;9.986;2024-03-02T02:20:32;5.30;99.90
5588;DHT22;2816;49.778;9.986;2024-03-02T02:23:02;5.20;99.90
5588;DHT22;2816;49.778;9.986;2024-03-02T02:25:30;5.20;99.90
5588;DHT22;2816;49.778;9.986;2024-03-02T02:27:57;5.30;99.90
5588;DHT22;2816;49.778;9.986;2024-03-02T02:30:26;5.30;99.90
5588;DHT22;2816;49.778;9.986;2024-03-02T02:32:53;5.20;99.90
5588;DHT22;2816;49.778;9.986;2024-03-02T02:35:20;5.20;99.90
5588;DHT22;2816;49.778;9.986;2024-03-02T02:37:48;5.20;99.90
5588;DHT22;2816;49.778;9.986;2024-03-02T02:40:17;5.20;99.90
5588;DHT22;2816;49.778;9.986;2024-03-02T02:42:45;5.20;99.90
5588;DHT22;2816;49.778;9.986;2024-03-02T02:45:13;5.20;99.90
5588;DHT22;2816;49.778;9.986;2024-03-02T02:47:40;5.20;99.90
5588;DHT22;2816;49.778;9.986;2024-03-02T02:50:08;5.30;99.90
5588;DHT22;2816;49.778;9.986;2024-03-02T02:52:36;5.30;99.90
5588;DHT22;2816;49.778;9.986;2024-03-02T02:55:06;5.30;99.90
5588;DHT22;2816;49.778;9.986;2024-03-02T02:57:35;5.30;99.90
5588;DHT22;2816;49.778;9.986;2024-03-02T03:00:06;5.30;99.90
5588;DHT22;2816;49.778;9.986;2024-03-02T03:02:37;5.30;99.90
5588;DHT22;2816;49.778;9.986;2024-03-02T03:05:04;5.30;99.90
5588;DHT22;2816;49.778;9.986;2024-03-02T03:07:32;5.30;99.90
5588;DHT22;2816;49.778;9.986;2024-03-02T03:09:59;5.40;99.90
5588;DHT22;2816;49.778;9.986;2024-03-02T03:12:26;5.40;99.90
5588;DHT22;2816;49.778;9.986;2024-03-02T03:14:54;5.40;99.90
5588;DHT22;2816;49.778;9.986;2024-03-02T03:17:21;5.40;99.90
5588;DHT22;2816;49.778;9.986;2024-03-02T03:19:48;5.30;99.90
5588;DHT22;2816;49.778;9.986;2024-03-02T03:22:15;5.20;99.90
5588;DHT22;2816;49.778;9.986;2024-03-02T03:24:42;5.20;99.90
5588;DHT22;2816;49.778;9.986;2024-03-02T03:27:09;5.10;99.90
5588;DHT22;2816;49.778;9.986;2024-03-02T03:29:36;5.00;99.90
5588;DHT22;2816;49.778;9.986;2024-03-02T03:32:06;5.10;99.90
5588;DHT22;2816;49.778;9.986;2024-03-02T03:34:33;5.00;99.90
5588;DHT22;2816;49.778;9.986;2024-03-02T03:37:00;4.90;99.90
5588;DHT22;2816;49.778;9.986;2024-03-02T03:39:27;4.90;99.90
5588;DHT22;2816;49.778;9.986;2024-03-02T03:41:54;4.90;99.90
5588;DHT22;2816;49.778;9.986;2024-03-02T03:44:21;4.80;99.90
5588;DHT22;2816;49.778;9.986;2024-03-02T03:46:47;4.80;99.90
5588;DHT22;2816;49.778;9.986;2024-03-02T03:49:16;4.80;99.90
5588;DHT22;2816;49.778;9.986;2024-03-02T03:51:43;4.80;99.90
5588;DHT22;2816;49.778;9.986;2024-03-02T03:54:10;4.80;99.90
5588;DHT22;2816;49.778;9.986;2024-03-02T03:56:37;4.80;99.90
5588;DHT22;2816;49.778;9.986;2024-03-02T03:59:04;4.80;99.90
5588;DHT22;2816;49.778;9.986;2024-03-02T04:01:31;4.80;99.90
5588;DHT22;2816;49.778;9.986;2024-03-02T04:03:58;4.70;99.90
5588;DHT22;2816;49.778;9.986;2024-03-02T04:06:26;4.70;99.90
5588;DHT22;2816;49.778;9.986;2024-03-02T04:08:53;4.70;99.90
5588;DHT22;2816;49.778;9.986;2024-03-02T04:11:20;4.60;99.90
5588;DHT22;2816;49.778;9.986;2024-03-02T04:13:47;4.60;99.90
5588;DHT22;2816;49.778;9.986;2024-03-02T04:16:14;4.60;99.90
5588;DHT22;2816;49.778;9.986;2024-03-02T04:18:41;4.60;99.90
5588;DHT22;2816;49.778;9.986;2024-03-02T04:21:08;4.50;99.90
5588;DHT22;2816;49.778;9.986;2024-03-02T04:23:36;4.50;99.90
5588;DHT22;2816;49.778;9.986;2024-03-02T04:26:03;4.50;99.90
5588;DHT22;2816;49.778;9.986;2024-03-02T04:28:31;4.60;99.90
5588;DHT22;2816;49.778;9.986;2024-03-02T04:30:58;4.60;99.90
5588;DHT22;2816;49.778;9.986;2024-03-02T04:33:25;4.60;99.90
5588;DHT22;2816;49.778;9.986;2024-03-02T04:35:52;4.60;99.90
5588;DHT22;2816;49.778;9.986;2024-03-02T04:38:19;4.60;99.90
5588;DHT22;2816;49.778;9.986;2024-03-02T04:40:47;4.60;99.90
5588;DHT22;2816;49.778;9.986;2024-03-02T04:43:14;4.60;99.90
5588;DHT22;2816;49.778;9.986;2024-03-02T04:45:42;4.60;99.90
5588;DHT22;2816;49.778;9.986;2024-03-02T04:48:09;4.50;99.90
5588;DHT22;2816;49.778;9.986;2024-03-02T04:50:36;4.40;99.90
5588;DHT22;2816;49.778;9.986;2024-03-02T04:53:03;4.40;99.90
5588;DHT22;2816;49.778;9.986;2024-03-02T04:55:30;4.30;99.90
5588;DHT22;2816;49.778;9.986;2024-03-02T04:58:24;4.30;99.90
5588;DHT22;2816;49.778;9.986;2024-03-02T05:00:52;4.20;99.90
5588;DHT22;2816;49.778;9.986;2024-03-02T05:03:18;4.20;99.90
5588;DHT22;2816;49.778;9.986;2024-03-02T05:05:46;4.20;99.90
5588;DHT22;2816;49.778;9.986;2024-03-02T05:08:13;4.20;99.90
5588;DHT22;2816;49.778;9.986;2024-03-02T05:10:43;4.10;99.90
5588;DHT22;2816;49.778;9.986;2024-03-02T05:13:10;4.00;99.90
5588;DHT22;2816;49.778;9.986;2024-03-02T05:15:38;4.00;99.90
5588;DHT22;2816;49.778;9.986;2024-03-02T05:18:06;4.00;99.90
5588;DHT22;2816;49.778;9.986;2024-03-02T05:20:33;3.90;99.90
5588;DHT22;2816;49.778;9.986;2024-03-02T05:23:00;3.90;99.90
5588;DHT22;2816;49.778;9.986;2024-03-02T05:25:26;3.90;99.90
5588;DHT22;2816;49.778;9.986;2024-03-02T05:27:53;3.80;99.90
5588;DHT22;2816;49.778;9.986;2024-03-02T05:30:20;3.80;99.90
5588;DHT22;2816;49.778;9.986;2024-03-02T05:32:48;3.80;99.90
5588;DHT22;2816;49.778;9.986;2024-03-02T05:35:15;3.80;99.90
5588;DHT22;2816;49.778;9.986;2024-03-02T05:37:42;3.70;99.90
5588;DHT22;2816;49.778;9.986;2024-03-02T05:40:09;3.80;99.90
5588;DHT22;2816;49.778;9.986;2024-03-02T05:42:37;3.90;99.90
5588;DHT22;2816;49.778;9.986;2024-03-02T05:45:05;3.80;99.90
5588;DHT22;2816;49.778;9.986;2024-03-02T05:47:32;3.80;99.90
5588;DHT22;2816;49.778;9.986;2024-03-02T05:50:00;3.80;99.90
5588;DHT22;2816;49.778;9.986;2024-03-02T05:52:27;3.80;99.90
5588;DHT22;2816;49.778;9.986;2024-03-02T05:54:53;3.80;99.90
5588;DHT22;2816;49.778;9.986;2024-03-02T05:57:20;3.70;99.90
5588;DHT22;2816;49.778;9.986;2024-03-02T06:00:02;3.70;99.90
5588;DHT22;2816;49.778;9.986;2024-03-02T06:02:33;3.70;99.90
5588;DHT22;2816;49.778;9.986;2024-03-02T06:05:02;3.70;99.90
5588;DHT22;2816;49.778;9.986;2024-03-02T06:07:29;3.60;99.90
5588;DHT22;2816;49.778;9.986;2024-03-02T06:09:57;3.60;99.90
5588;DHT22;2816;49.778;9.986;2024-03-02T06:12:24;3.50;99.90
5588;DHT22;2816;49.778;9.986;2024-03-02T06:14:51;3.50;99.90
5588;DHT22;2816;49.778;9.986;2024-03-02T06:17:17;3.50;99.90
5588;DHT22;2816;49.778;9.986;2024-03-02T06:19:44;3.50;99.90
5588;DHT22;2816;49.778;9.986;2024-03-02T06:22:13;3.50;99.90
5588;DHT22;2816;49.778;9.986;2024-03-02T06:24:40;3.50;99.90
5588;DHT22;2816;49.778;9.986;2024-03-02T06:27:07;3.50;99.90
5588;DHT22;2816;49.778;9.986;2024-03-02T06:29:34;3.50;99.90
5588;DHT22;2816;49.778;9.986;2024-03-02T06:32:01;3.50;99.90
5588;DHT22;2816;49.778;9.986;2024-03-02T06:34:28;3.60;99.90
5588;DHT22;2816;49.778;9.986;2024-03-02T06:36:54;3.60;99.90
5588;DHT22;2816;49.778;9.986;2024-03-02T06:39:23;3.70;99.90
5588;DHT22;2816;49.778;9.986;2024-03-02T06:41:51;3.70;99.90
5588;DHT22;2816;49.778;9.986;2024-03-02T06:44:18;3.80;99.90
5588;DHT22;2816;49.778;9.986;2024-03-02T06:46:45;3.90;99.90
5588;DHT22;2816;49.778;9.986;2024-03-02T06:49:12;4.00;99.90
5588;DHT22;2816;49.778;9.986;2024-03-02T06:51:38;4.10;99.90
5588;DHT22;2816;49.778;9.986;2024-03-02T06:54:07;4.10;99.90
5588;DHT22;2816;49.778;9.986;2024-03-02T06:56:35;4.20;99.90
5588;DHT22;2816;49.778;9.986;2024-03-02T06:59:04;4.20;99.90
5588;DHT22;2816;49.778;9.986;2024-03-02T07:01:31;4.20;99.90
5588;DHT22;2816;49.778;9.986;2024-03-02T07:03:57;4.30;99.90
5588;DHT22;2816;49.778;9.986;2024-03-02T07:06:24;4.40;99.90
5588;DHT22;2816;49.778;9.986;2024-03-02T07:08:51;4.40;99.90
5588;DHT22;2816;49.778;9.986;2024-03-02T07:11:18;4.40;99.90
5588;DHT22;2816;49.778;9.986;2024-03-02T07:13:46;4.40;99.90
5588;DHT22;2816;49.778;9.986;2024-03-02T07:16:13;4.50;99.90
5588;DHT22;2816;49.778;9.986;2024-03-02T07:18:53;4.60;99.90
5588;DHT22;2816;49.778;9.986;2024-03-02T07:21:21;4.60;99.90
5588;DHT22;2816;49.778;9.986;2024-03-02T07:23:50;4.60;99.90
5588;DHT22;2816;49.778;9.986;2024-03-02T07:26:17;4.70;99.90
5588;DHT22;2816;49.778;9.986;2024-03-02T07:28:46;4.80;99.90
5588;DHT22;2816;49.778;9.986;2024-03-02T07:31:15;4.80;99.90
5588;DHT22;2816;49.778;9.986;2024-03-02T07:33:44;4.80;99.90
5588;DHT22;2816;49.778;9.986;2024-03-02T07:36:11;4.80;99.90
5588;DHT22;2816;49.778;9.986;2024-03-02T07:38:38;4.90;99.90
5588;DHT22;2816;49.778;9.986;2024-03-02T07:41:06;4.90;99.90
5588;DHT22;2816;49.778;9.986;2024-03-02T07:43:33;5.10;99.90
5588;DHT22;2816;49.778;9.986;2024-03-02T07:46:01;5.10;99.90
5588;DHT22;2816;49.778;9.986;2024-03-02T07:48:29;5.10;99.90
5588;DHT22;2816;49.778;9.986;2024-03-02T07:50:56;5.10;99.90
5588;DHT22;2816;49.778;9.986;2024-03-02T07:53:23;5.20;99.90
5588;DHT22;2816;49.778;9.986;2024-03-02T07:55:50;5.20;99.90
5588;DHT22;2816;49.778;9.986;2024-03-02T07:58:17;5.20;99.90
5588;DHT22;2816;49.778;9.986;2024-03-02T08:00:45;5.30;99.90
5588;DHT22;2816;49.778;9.986;2024-03-02T08:03:13;5.30;99.90
5588;DHT22;2816;49.778;9.986;2024-03-02T08:05:40;5.40;99.90
5588;DHT22;2816;49.778;9.986;2024-03-02T08:08:07;5.40;99.90
5588;DHT22;2816;49.778;9.986;2024-03-02T08:10:34;5.40;99.90
5588;DHT22;2816;49.778;9.986;2024-03-02T08:13:01;5.60;99.90
5588;DHT22;2816;49.778;9.986;2024-03-02T08:15:28;5.60;99.90
5588;DHT22;2816;49.778;9.986;2024-03-02T08:17:55;5.70;99.90
5588;DHT22;2816;49.778;9.986;2024-03-02T08:20:23;5.70;99.90
5588;DHT22;2816;49.778;9.986;2024-03-02T08:22:50;5.70;99.90
5588;DHT22;2816;49.778;9.986;2024-03-02T08:25:20;6.00;99.90
5588;DHT22;2816;49.778;9.986;2024-03-02T08:27:47;6.10;99.90
5588;DHT22;2816;49.778;9.986;2024-03-02T08:30:14;6.10;99.90
5588;DHT22;2816;49.778;9.986;2024-03-02T08:32:41;6.20;99.90
5588;DHT22;2816;49.778;9.986;2024-03-02T08:35:08;6.30;99.90
5588;DHT22;2816;49.778;9.986;2024-03-02T08:37:38;6.40;99.90
5588;DHT22;2816;49.778;9.986;2024-03-02T08:40:07;6.50;99.90
5588;DHT22;2816;49.778;9.986;2024-03-02T08:42:34;6.50;99.90
5588;DHT22;2816;49.778;9.986;2024-03-02T08:45:01;6.50;99.90
5588;DHT22;2816;49.778;9.986;2024-03-02T08:47:28;6.60;99.90
5588;DHT22;2816;49.778;9.986;2024-03-02T08:49:55;6.50;99.90
5588;DHT22;2816;49.778;9.986;2024-03-02T08:52:22;6.60;99.90
5588;DHT22;2816;49.778;9.986;2024-03-02T08:54:50;6.80;99.90
5588;DHT22;2816;49.778;9.986;2024-03-02T08:57:17;6.90;99.90
5588;DHT22;2816;49.778;9.986;2024-03-02T08:59:44;6.90;99.90
5588;DHT22;2816;49.778;9.986;2024-03-02T09:02:11;6.70;99.90
5588;DHT22;2816;49.778;9.986;2024-03-02T09:04:38;6.90;99.90
5588;DHT22;2816;49.778;9.986;2024-03-02T09:07:05;7.00;99.90
5588;DHT22;2816;49.778;9.986;2024-03-02T09:09:33;7.00;99.90
5588;DHT22;2816;49.778;9.986;2024-03-02T09:12:01;7.10;99.90
5588;DHT22;2816;49.778;9.986;2024-03-02T09:14:28;7.10;99.90
5588;DHT22;2816;49.778;9.986;2024-03-02T09:16:55;7.10;99.90
5588;DHT22;2816;49.778;9.986;2024-03-02T09:19:22;7.20;99.90
5588;DHT22;2816;49.778;9.986;2024-03-02T09:21:50;7.30;99.90
5588;DHT22;2816;49.778;9.986;2024-03-02T09:24:17;7.40;99.90
5588;DHT22;2816;49.778;9.986;2024-03-02T09:26:45;7.50;99.90
5588;DHT22;2816;49.778;9.986;2024-03-02T09:29:13;7.60;99.90
5588;DHT22;2816;49.778;9.986;2024-03-02T09:31:41;7.50;99.90
5588;DHT22;2816;49.778;9.986;2024-03-02T09:34:08;7.60;99.90
5588;DHT22;2816;49.778;9.986;2024-03-02T09:36:35;7.60;99.90
5588;DHT22;2816;49.778;9.986;2024-03-02T09:39:03;7.60;99.90
5588;DHT22;2816;49.778;9.986;2024-03-02T09:41:30;7.80;99.90
5588;DHT22;2816;49.778;9.986;2024-03-02T09:43:58;7.80;99.90
5588;DHT22;2816;49.778;9.986;2024-03-02T09:46:28;7.80;99.90
5588;DHT22;2816;49.778;9.986;2024-03-02T09:48:55;7.80;99.90
5588;DHT22;2816;49.778;9.986;2024-03-02T09:51:22;7.90;99.90
5588;DHT22;2816;49.778;9.986;2024-03-02T09:53:50;8.00;99.90
5588;DHT22;2816;49.778;9.986;2024-03-02T09:56:17;8.10;99.90
5588;DHT22;2816;49.778;9.986;2024-03-02T09:58:45;8.20;99.90
5588;DHT22;2816;49.778;9.986;2024-03-02T10:01:11;8.30;99.90
5588;DHT22;2816;49.778;9.986;2024-03-02T10:03:40;8.30;99.90
5588;DHT22;2816;49.778;9.986;2024-03-02T10:06:20;8.40;99.90
5588;DHT22;2816;49.778;9.986;2024-03-02T10:08:47;8.40;99.90
5588;DHT22;2816;49.778;9.986;2024-03-02T10:11:26;8.50;99.90
5588;DHT22;2816;49.778;9.986;2024-03-02T10:14:12;8.50;99.90
5588;DHT22;2816;49.778;9.986;2024-03-02T10:16:40;8.70;99.90
5588;DHT22;2816;49.778;9.986;2024-03-02T10:19:17;8.90;99.90
5588;DHT22;2816;49.778;9.986;2024-03-02T10:21:44;8.90;99.90
5588;DHT22;2816;49.778;9.986;2024-03-02T10:24:11;9.00;99.90
5588;DHT22;2816;49.778;9.986;2024-03-02T10:26:39;9.10;99.90
5588;DHT22;2816;49.778;9.986;2024-03-02T10:29:07;9.20;99.90
5588;DHT22;2816;49.778;9.986;2024-03-02T10:31:37;9.30;99.90
5588;DHT22;2816;49.778;9.986;2024-03-02T10:34:05;9.30;99.90
5588;DHT22;2816;49.778;9.986;2024-03-02T10:36:33;9.50;99.90
5588;DHT22;2816;49.778;9.986;2024-03-02T10:39:02;9.60;99.90
5588;DHT22;2816;49.778;9.986;2024-03-02T10:41:32;9.80;99.90
5588;DHT22;2816;49.778;9.986;2024-03-02T10:44:02;10.00;99.90
5588;DHT22;2816;49.778;9.986;2024-03-02T10:46:30;9.80;99.90
5588;DHT22;2816;49.778;9.986;2024-03-02T10:48:58;9.80;99.90
5588;DHT22;2816;49.778;9.986;2024-03-02T10:51:26;10.00;99.90
5588;DHT22;2816;49.778;9.986;2024-03-02T10:53:55;10.00;99.90
5588;DHT22;2816;49.778;9.986;2024-03-02T10:56:28;9.90;99.90
5588;DHT22;2816;49.778;9.986;2024-03-02T10:59:06;10.00;99.90
5588;DHT22;2816;49.778;9.986;2024-03-02T11:01:50;10.20;99.90
5588;DHT22;2816;49.778;9.986;2024-03-02T11:04:22;10.30;99.90
5588;DHT22;2816;49.778;9.986;2024-03-02T11:06:51;10.50;99.90
5588;DHT22;2816;49.778;9.986;2024-03-02T11:09:23;10.60;99.90
5588;DHT22;2816;49.778;9.986;2024-03-02T11:11:56;10.60;99.90
5588;DHT22;2816;49.778;9.986;2024-03-02T11:14:25;10.60;99.90
5588;DHT22;2816;49.778;9.986;2024-03-02T11:16:52;10.50;99.90
5588;DHT22;2816;49.778;9.986;2024-03-02T11:19:19;10.80;99.90
5588;DHT22;2816;49.778;9.986;2024-03-02T11:21:47;10.90;99.90
5588;DHT22;2816;49.778;9.986;2024-03-02T11:24:47;11.10;99.90
5588;DHT22;2816;49.778;9.986;2024-03-02T11:30:48;11.40;99.90
5588;DHT22;2816;49.778;9.986;2024-03-02T11:33:23;11.50;99.90
5588;DHT22;2816;49.778;9.986;2024-03-02T11:35:51;11.80;99.90
5588;DHT22;2816;49.778;9.986;2024-03-02T11:38:18;11.80;99.90
5588;DHT22;2816;49.778;9.986;2024-03-02T11:40:47;11.90;99.90
5588;DHT22;2816;49.778;9.986;2024-03-02T11:43:14;11.60;99.90
5588;DHT22;2816;49.778;9.986;2024-03-02T11:45:43;11.90;99.90
5588;DHT22;2816;49.778;9.986;2024-03-02T11:48:11;12.30;99.90
5588;DHT22;2816;49.778;9.986;2024-03-02T11:50:41;12.40;99.90
5588;DHT22;2816;49.778;9.986;2024-03-02T11:53:10;12.50;99.90
5588;DHT22;2816;49.778;9.986;2024-03-02T11:55:39;12.70;99.90
5588;DHT22;2816;49.778;9.986;2024-03-02T11:58:08;12.80;99.90
5588;DHT22;2816;49.778;9.986;2024-03-02T12:00:35;13.10;99.90
5588;DHT22;2816;49.778;9.986;2024-03-02T12:03:04;13.40;99.90
5588;DHT22;2816;49.778;9.986;2024-03-02T12:05:32;13.40;99.90
5588;DHT22;2816;49.778;9.986;2024-03-02T12:08:01;13.50;99.90
5588;DHT22;2816;49.778;9.986;2024-03-02T12:10:29;13.40;99.90
5588;DHT22;2816;49.778;9.986;2024-03-02T12:12:56;13.40;99.90
5588;DHT22;2816;49.778;9.986;2024-03-02T12:15:26;13.90;99.90
5588;DHT22;2816;49.778;9.986;2024-03-02T12:17:54;14.10;99.90
5588;DHT22;2816;49.778;9.986;2024-03-02T12:20:22;14.20;99.90
5588;DHT22;2816;49.778;9.986;2024-03-02T12:22:50;14.20;99.90
5588;DHT22;2816;49.778;9.986;2024-03-02T12:25:19;14.50;99.90
5588;DHT22;2816;49.778;9.986;2024-03-02T12:27:46;14.30;99.90
5588;DHT22;2816;49.778;9.986;2024-03-02T12:30:14;14.50;99.90
5588;DHT22;2816;49.778;9.986;2024-03-02T12:32:44;14.80;99.90
5588;DHT22;2816;49.778;9.986;2024-03-02T12:35:12;15.00;99.90
5588;DHT22;2816;49.778;9.986;2024-03-02T12:37:44;15.10;99.90
5588;DHT22;2816;49.778;9.986;2024-03-02T12:40:11;14.80;99.90
5588;DHT22;2816;49.778;9.986;2024-03-02T12:42:39;14.80;99.90
5588;DHT22;2816;49.778;9.986;2024-03-02T12:45:09;14.90;99.90
5588;DHT22;2816;49.778;9.986;2024-03-02T12:47:36;15.10;99.90
5588;DHT22;2816;49.778;9.986;2024-03-02T12:50:07;15.30;99.90
5588;DHT22;2816;49.778;9.986;2024-03-02T12:52:34;15.40;99.90
5588;DHT22;2816;49.778;9.986;2024-03-02T12:55:03;15.40;99.90
5588;DHT22;2816;49.778;9.986;2024-03-02T12:57:31;15.30;99.90
5588;DHT22;2816;49.778;9.986;2024-03-02T12:59:58;15.40;99.90
5588;DHT22;2816;49.778;9.986;2024-03-02T13:02:28;15.50;99.90
5588;DHT22;2816;49.778;9.986;2024-03-02T13:04:56;15.50;99.90
5588;DHT22;2816;49.778;9.986;2024-03-02T13:07:25;15.60;99.90
5588;DHT22;2816;49.778;9.986;2024-03-02T13:09:53;15.80;99.90
5588;DHT22;2816;49.778;9.986;2024-03-02T13:12:22;16.00;99.90
5588;DHT22;2816;49.778;9.986;2024-03-02T13:14:49;16.00;99.90
5588;DHT22;2816;49.778;9.986;2024-03-02T13:17:18;15.90;99.90
5588;DHT22;2816;49.778;9.986;2024-03-02T13:19:52;15.90;99.90
5588;DHT22;2816;49.778;9.986;2024-03-02T13:22:19;16.20;99.90
5588;DHT22;2816;49.778;9.986;2024-03-02T13:24:49;15.60;99.90
5588;DHT22;2816;49.778;9.986;2024-03-02T13:27:16;16.00;99.90
5588;DHT22;2816;49.778;9.986;2024-03-02T13:29:45;16.20;99.90
5588;DHT22;2816;49.778;9.986;2024-03-02T13:32:12;16.50;99.90
5588;DHT22;2816;49.778;9.986;2024-03-02T13:34:38;16.60;99.90
5588;DHT22;2816;49.778;9.986;2024-03-02T13:37:05;16.60;99.90
5588;DHT22;2816;49.778;9.986;2024-03-02T13:39:32;16.60;99.90
5588;DHT22;2816;49.778;9.986;2024-03-02T13:42:09;16.50;99.90
5588;DHT22;2816;49.778;9.986;2024-03-02T13:44:36;16.20;99.90
5588;DHT22;2816;49.778;9.986;2024-03-02T13:47:04;16.40;99.90
5588;DHT22;2816;49.778;9.986;2024-03-02T13:49:31;16.70;99.90
5588;DHT22;2816;49.778;9.986;2024-03-02T13:52:02;16.70;99.90
5588;DHT22;2816;49.778;9.986;2024-03-02T13:54:37;16.50;99.90
5588;DHT22;2816;49.778;9.986;2024-03-02T13:57:04;16.70;99.90
5588;DHT22;2816;49.778;9.986;2024-03-02T13:59:33;16.80;99.90
5588;DHT22;2816;49.778;9.986;2024-03-02T14:02:00;16.20;99.90
5588;DHT22;2816;49.778;9.986;2024-03-02T14:04:28;16.60;99.90
5588;DHT22;2816;49.778;9.986;2024-03-02T14:06:55;16.90;99.90
5588;DHT22;2816;49.778;9.986;2024-03-02T14:09:22;16.90;99.30
5588;DHT22;2816;49.778;9.986;2024-03-02T14:11:50;17.10;98.90
5588;DHT22;2816;49.778;9.986;2024-03-02T14:14:17;17.10;99.40
5588;DHT22;2816;49.778;9.986;2024-03-02T14:16:45;17.20;99.10
5588;DHT22;2816;49.778;9.986;2024-03-02T14:19:14;17.10;98.70
5588;DHT22;2816;49.778;9.986;2024-03-02T14:21:41;17.10;98.20
5588;DHT22;2816;49.778;9.986;2024-03-02T14:24:08;16.50;99.10
5588;DHT22;2816;49.778;9.986;2024-03-02T14:26:35;16.60;98.30
5588;DHT22;2816;49.778;9.986;2024-03-02T14:29:03;16.60;99.90
5588;DHT22;2816;49.778;9.986;2024-03-02T14:31:30;16.30;99.60
5588;DHT22;2816;49.778;9.986;2024-03-02T14:33:59;16.90;99.90
5588;DHT22;2816;49.778;9.986;2024-03-02T14:36:26;16.40;99.00
5588;DHT22;2816;49.778;9.986;2024-03-02T14:38:54;16.40;98.70
5588;DHT22;2816;49.778;9.986;2024-03-02T14:41:21;16.20;99.90
5588;DHT22;2816;49.778;9.986;2024-03-02T14:43:49;16.40;98.60
5588;DHT22;2816;49.778;9.986;2024-03-02T14:46:17;16.10;99.90
5588;DHT22;2816;49.778;9.986;2024-03-02T14:48:44;15.70;99.80
5588;DHT22;2816;49.778;9.986;2024-03-02T14:51:13;15.30;99.90
5588;DHT22;2816;49.778;9.986;2024-03-02T14:53:40;15.60;99.90
5588;DHT22;2816;49.778;9.986;2024-03-02T14:56:08;15.80;99.90
5588;DHT22;2816;49.778;9.986;2024-03-02T14:58:35;15.20;99.90
5588;DHT22;2816;49.778;9.986;2024-03-02T15:01:03;15.30;99.90
5588;DHT22;2816;49.778;9.986;2024-03-02T15:03:30;15.40;99.90
5588;DHT22;2816;49.778;9.986;2024-03-02T15:05:57;15.30;99.90
5588;DHT22;2816;49.778;9.986;2024-03-02T15:08:25;15.70;99.90
5588;DHT22;2816;49.778;9.986;2024-03-02T15:10:52;16.00;99.90
5588;DHT22;2816;49.778;9.986;2024-03-02T15:13:21;16.10;99.90
5588;DHT22;2816;49.778;9.986;2024-03-02T15:15:48;16.20;99.90
5588;DHT22;2816;49.778;9.986;2024-03-02T15:18:15;16.10;99.90
5588;DHT22;2816;49.778;9.986;2024-03-02T15:20:42;16.00;99.90
5588;DHT22;2816;49.778;9.986;2024-03-02T15:23:09;16.10;99.90
5588;DHT22;2816;49.778;9.986;2024-03-02T15:25:37;15.70;99.90
5588;DHT22;2816;49.778;9.986;2024-03-02T15:28:04;15.70;99.90
5588;DHT22;2816;49.778;9.986;2024-03-02T15:30:31;15.50;99.90
5588;DHT22;2816;49.778;9.986;2024-03-02T15:32:58;15.60;99.90
5588;DHT22;2816;49.778;9.986;2024-03-02T15:35:25;15.50;99.90
5588;DHT22;2816;49.778;9.986;2024-03-02T15:37:52;15.30;99.90
5588;DHT22;2816;49.778;9.986;2024-03-02T15:40:19;15.10;99.90
5588;DHT22;2816;49.778;9.986;2024-03-02T15:42:47;15.10;99.90
5588;DHT22;2816;49.778;9.986;2024-03-02T15:45:14;15.20;99.90
5588;DHT22;2816;49.778;9.986;2024-03-02T15:47:41;15.10;99.90
5588;DHT22;2816;49.778;9.986;2024-03-02T15:50:09;14.90;99.90
5588;DHT22;2816;49.778;9.986;2024-03-02T15:52:37;14.80;99.90
5588;DHT22;2816;49.778;9.986;2024-03-02T15:55:04;14.80;99.90
5588;DHT22;2816;49.778;9.986;2024-03-02T15:57:31;14.60;99.90
5588;DHT22;2816;49.778;9.986;2024-03-02T15:59:59;14.40;99.90
5588;DHT22;2816;49.778;9.986;2024-03-02T16:02:27;14.20;99.90
5588;DHT22;2816;49.778;9.986;2024-03-02T16:04:55;14.10;99.90
5588;DHT22;2816;49.778;9.986;2024-03-02T16:07:22;14.00;99.90
5588;DHT22;2816;49.778;9.986;2024-03-02T16:09:48;14.10;99.90
5588;DHT22;2816;49.778;9.986;2024-03-02T16:12:16;13.90;99.90
5588;DHT22;2816;49.778;9.986;2024-03-02T16:14:43;13.80;99.90
5588;DHT22;2816;49.778;9.986;2024-03-02T16:17:11;13.80;99.90
5588;DHT22;2816;49.778;9.986;2024-03-02T16:19:38;13.70;99.90
5588;DHT22;2816;49.778;9.986;2024-03-02T16:22:06;13.70;99.90
5588;DHT22;2816;49.778;9.986;2024-03-02T16:24:36;13.50;99.90